Time;durP1;ratioP1;P1;durP2;ratioP2;P2;SDS_P1;SDS_P2;PMS_P1;PMS_P2;Temp;Humidity;BMP_temperature;BMP_pressure;BME280_temperature;BME280_humidity;BME280_pressure;Samples;Min_cycle;Max_cycle;Signal;HPM_P1;HPM_P2
2023/02/11 00:01:51;;;;;;;14.82;4.35;;;;;;;6.01;86.73;103666.91;6103937;19;20021;-77
2023/02/11 00:03:57;;;;;;;19.90;4.57;;;;;;;6.00;86.76;103656.44;6098955;19;20489;-77
2023/02/11 00:06:04;;;;;;;12.52;4.07;;;;;;;5.97;86.67;103654.63;6103161;19;20499;-78
2023/02/11 00:08:09;;;;;;;12.35;4.28;;;;;;;5.97;86.73;103654.63;6102523;19;20003;-77
2023/02/11 00:10:17;;;;;;;18.77;3.90;;;;;;;5.98;86.90;103653.81;6101057;19;20024;-77
2023/02/11 00:12:22;;;;;;;21.60;4.95;;;;;;;5.93;86.97;103658.91;6101838;19;20019;-78
2023/02/11 00:14:27;;;;;;;14.55;4.20;;;;;;;5.92;86.85;103654.50;6102250;19;20491;-77
2023/02/11 00:16:33;;;;;;;15.73;4.25;;;;;;;5.97;86.77;103657.22;6099460;19;20480;-77
2023/02/11 00:18:41;;;;;;;13.63;4.75;;;;;;;5.98;86.79;103650.28;6101576;19;20014;-78
2023/02/11 00:20:54;;;;;;;17.48;4.20;;;;;;;5.97;86.58;103654.63;6101116;19;20021;-78
2023/02/11 00:23:01;;;;;;;15.38;4.90;;;;;;;6.01;86.34;103642.56;6102818;19;20014;-79
2023/02/11 00:25:07;;;;;;;20.23;4.97;;;;;;;5.99;86.55;103645.13;6099257;19;20043;-79
2023/02/11 00:27:15;;;;;;;17.13;4.55;;;;;;;6.00;86.44;103654.69;6103495;19;20027;-78
2023/02/11 00:29:20;;;;;;;12.10;3.88;;;;;;;6.02;86.04;103649.53;6104348;19;20591;-78
2023/02/11 00:31:25;;;;;;;13.43;4.75;;;;;;;6.04;86.23;103648.72;6101542;19;20311;-78
2023/02/11 00:33:33;;;;;;;20.00;5.60;;;;;;;6.08;85.97;103650.56;6103880;19;20346;-79
2023/02/11 00:35:40;;;;;;;15.82;4.70;;;;;;;6.09;85.67;103641.88;6103210;19;20043;-79
2023/02/11 00:37:45;;;;;;;19.73;4.85;;;;;;;6.08;85.89;103631.38;6103326;19;20031;-79
2023/02/11 00:39:51;;;;;;;16.40;4.90;;;;;;;6.06;85.47;103628.75;6107553;19;20064;-80
2023/02/11 00:41:56;;;;;;;13.43;4.60;;;;;;;6.08;85.56;103628.78;6106078;19;20080;-78
2023/02/11 00:44:05;;;;;;;19.60;5.40;;;;;;;6.07;85.90;103622.66;6105027;19;20007;-78
2023/02/11 00:46:10;;;;;;;15.38;4.47;;;;;;;6.08;85.45;103615.72;6106996;19;20014;-77
2023/02/11 00:48:15;;;;;;;16.20;4.25;;;;;;;6.07;85.51;103619.19;6108460;19;20714;-78
2023/02/11 00:50:21;;;;;;;13.52;4.38;;;;;;;6.04;85.64;103613.91;6102049;19;20018;-78
2023/02/11 00:52:26;;;;;;;18.02;5.60;;;;;;;6.07;85.30;103622.66;6098662;19;20015;-77
2023/02/11 00:54:34;;;;;;;14.82;4.18;;;;;;;6.01;85.79;103626.88;6101446;19;20010;-79
2023/02/11 00:56:39;;;;;;;19.25;5.55;;;;;;;6.02;85.65;103629.50;6101239;19;20007;-79
2023/02/11 00:58:45;;;;;;;19.05;4.72;;;;;;;6.04;85.21;103614.78;6104027;19;20082;-79
2023/02/11 01:00:53;;;;;;;16.40;5.43;;;;;;;6.13;84.95;103620.22;6102741;19;20011;-78
2023/02/11 01:02:58;;;;;;;18.30;4.60;;;;;;;6.13;85.30;103625.44;6100867;19;20017;-79
2023/02/11 01:05:03;;;;;;;12.95;4.25;;;;;;;6.15;84.84;103625.47;6101956;19;20014;-77
2023/02/11 01:07:11;;;;;;;15.88;4.55;;;;;;;6.17;85.00;103633.34;6101725;19;20011;-77
2023/02/11 01:09:19;;;;;;;15.30;4.78;;;;;;;6.15;84.90;103639.38;6094256;19;20341;-79
2023/02/11 01:11:25;;;;;;;20.55;5.10;;;;;;;6.15;85.31;103643.75;6102381;19;20006;-79
2023/02/11 01:13:32;;;;;;;14.45;5.03;;;;;;;6.20;84.78;103649.06;6102733;19;20546;-79
2023/02/11 01:15:38;;;;;;;11.77;4.03;;;;;;;6.17;84.89;103639.44;6101496;19;20017;-78
2023/02/11 01:17:49;;;;;;;15.55;4.18;;;;;;;6.18;85.31;103635.97;6098651;19;20039;-79
2023/02/11 01:19:54;;;;;;;15.32;5.55;;;;;;;6.14;85.10;103624.59;6103993;19;20019;-79
2023/02/11 01:22:02;;;;;;;21.60;6.40;;;;;;;6.18;85.60;103619.44;6102894;19;20068;-79
2023/02/11 01:24:10;;;;;;;15.88;5.32;;;;;;;6.15;85.57;103615.88;6100869;19;20529;-79
2023/02/11 01:26:15;;;;;;;16.60;4.75;;;;;;;6.11;85.43;103608.84;6101487;19;20461;-79
2023/02/11 01:28:22;;;;;;;17.92;5.30;;;;;;;6.11;85.57;103619.31;6099634;19;20040;-79
2023/02/11 01:30:28;;;;;;;17.83;5.25;;;;;;;6.09;85.47;103635.78;6098437;19;20010;-79
2023/02/11 01:32:33;;;;;;;15.50;4.50;;;;;;;6.05;85.70;103634.81;6099311;19;20085;-79
2023/02/11 01:34:41;;;;;;;14.65;4.63;;;;;;;6.05;85.88;103628.69;6100849;19;20048;-78
2023/02/11 01:36:46;;;;;;;14.45;4.20;;;;;;;6.04;86.16;103627.81;6103537;19;20010;-79
2023/02/11 01:38:52;;;;;;;18.08;5.60;;;;;;;6.02;86.25;103624.28;6106256;19;20040;-79
2023/02/11 01:41:00;;;;;;;18.27;5.53;;;;;;;5.95;86.30;103606.75;6108730;19;20011;-79
2023/02/11 01:43:05;;;;;;;11.55;4.68;;;;;;;5.89;86.67;103607.44;6108526;19;20058;-79
2023/02/11 01:45:40;;;;;;;16.40;5.05;;;;;;;5.86;86.81;103603.88;6108763;19;20010;-79
2023/02/11 01:47:45;;;;;;;13.52;4.70;;;;;;;5.83;86.65;103611.63;6105999;19;20003;-79
2023/02/11 01:49:59;;;;;;;22.73;5.03;;;;;;;5.79;87.02;103605.44;6109021;19;20018;-79
2023/02/11 01:52:11;;;;;;;17.70;4.63;;;;;;;5.71;86.91;103597.47;6108992;19;20535;-78
2023/02/11 01:59:09;;;;;;;13.57;4.43;;;;;;;5.54;87.73;103608.31;6107799;19;20015;-78
2023/02/11 02:01:21;;;;;;;22.17;5.00;;;;;;;5.53;87.98;103596.09;6107694;19;20036;-78
2023/02/11 02:03:27;;;;;;;15.75;4.85;;;;;;;5.48;88.16;103603.84;6107539;19;20007;-78
2023/02/11 02:05:41;;;;;;;12.65;4.40;;;;;;;5.48;88.29;103596.00;6108152;19;20014;-78
2023/02/11 02:07:52;;;;;;;12.50;5.07;;;;;;;5.45;88.56;103606.34;6099090;19;20024;-78
2023/02/11 02:10:03;;;;;;;13.65;5.32;;;;;;;5.46;88.51;103603.78;6108729;19;20017;-77
2023/02/11 02:12:08;;;;;;;16.13;5.57;;;;;;;5.44;88.65;103602.84;6105555;19;20045;-78
2023/02/11 02:14:15;;;;;;;22.70;6.78;;;;;;;5.42;88.69;103604.53;6108012;19;20039;-78
2023/02/11 02:16:23;;;;;;;20.63;6.03;;;;;;;5.42;88.86;103606.28;6084453;19;20102;-78
2023/02/11 02:18:43;;;;;;;17.38;5.35;;;;;;;5.34;89.38;103605.19;6106915;19;20011;-78
2023/02/11 02:21:23;;;;;;;22.08;5.60;;;;;;;5.33;89.18;103603.44;6108517;19;20431;-79
2023/02/11 02:23:45;;;;;;;18.70;5.50;;;;;;;5.27;89.31;103602.44;6110291;19;20014;-78
2023/02/11 02:26:11;;;;;;;16.65;5.50;;;;;;;5.23;89.79;103600.59;6106719;19;20017;-79
2023/02/11 02:28:35;;;;;;;23.60;6.07;;;;;;;5.15;89.97;103591.69;6110268;19;20022;-78
2023/02/11 02:31:02;;;;;;;18.52;5.93;;;;;;;5.10;90.14;103589.81;6109418;19;20024;-78
2023/02/11 02:33:27;;;;;;;14.63;6.15;;;;;;;5.05;90.58;103594.88;6107548;19;20014;-78
2023/02/11 02:35:41;;;;;;;17.05;5.18;;;;;;;5.04;90.21;103598.34;6108657;19;20044;-79
2023/02/11 02:38:01;;;;;;;16.08;5.30;;;;;;;5.03;90.46;103602.69;6102394;19;20627;-78
2023/02/11 02:40:14;;;;;;;17.13;5.43;;;;;;;4.98;90.58;103606.88;6109435;19;20034;-77
2023/02/11 02:42:20;;;;;;;;;;;;;;;4.93;90.80;103615.41;6107239;19;20010;-77
2023/02/11 02:44:25;;;;;;;13.27;5.35;;;;;;;4.87;90.84;103623.94;6105474;19;19919;-77
2023/02/11 02:46:33;;;;;;;16.77;5.90;;;;;;;4.95;91.49;103629.34;6107127;19;20035;-77
2023/02/11 02:48:43;;;;;;;19.38;5.65;;;;;;;4.94;91.39;103632.81;6106316;19;20006;-77
2023/02/11 02:50:56;;;;;;;20.17;6.63;;;;;;;4.89;91.37;103630.06;6105452;19;20028;-77
2023/02/11 02:53:14;;;;;;;18.13;6.47;;;;;;;4.91;91.51;103638.81;6102639;19;20011;-77
2023/02/11 02:55:43;;;;;;;17.67;5.53;;;;;;;4.89;91.49;103629.19;6105158;19;20011;-78
2023/02/11 02:58:21;;;;;;;18.40;6.00;;;;;;;4.89;91.54;103626.59;6100901;19;20010;-78
2023/02/11 03:00:37;;;;;;;22.73;5.95;;;;;;;4.86;91.76;103614.34;6103966;19;20476;-79
2023/02/11 03:02:52;;;;;;;15.48;6.38;;;;;;;4.82;91.95;103600.38;6106097;19;20018;-80
2023/02/11 03:05:08;;;;;;;18.17;6.35;;;;;;;4.72;91.75;103598.34;6103711;19;20018;-78
2023/02/11 03:07:23;;;;;;;18.83;6.28;;;;;;;4.76;91.82;103599.31;6106658;19;20036;-77
2023/02/11 03:09:37;;;;;;;14.50;5.85;;;;;;;4.67;92.17;103599.94;6107444;19;20497;-78
2023/02/11 03:11:43;;;;;;;21.05;6.30;;;;;;;4.73;92.50;103599.22;6106857;19;20010;-78
2023/02/11 03:13:52;;;;;;;18.77;7.32;;;;;;;4.73;92.84;103600.09;6102977;19;20021;-78
2023/02/11 03:16:01;;;;;;;19.02;7.55;;;;;;;4.74;92.14;103596.69;6108262;19;20021;-78
2023/02/11 03:18:10;;;;;;;24.23;6.72;;;;;;;4.87;92.62;103612.63;6108813;19;20039;-79
2023/02/11 03:20:22;;;;;;;22.85;8.10;;;;;;;4.88;92.68;103601.38;6107514;19;20122;-79
2023/02/11 03:22:29;;;;;;;21.20;7.15;;;;;;;4.99;93.00;103603.44;6106839;19;20006;-80
2023/02/11 03:24:38;;;;;;;19.55;6.68;;;;;;;4.95;92.61;103595.47;6106015;19;20017;-79
2023/02/11 03:26:48;;;;;;;18.23;6.68;;;;;;;4.93;92.87;103597.19;6106965;19;20458;-79
2023/02/11 03:29:02;;;;;;;19.30;6.97;;;;;;;4.96;93.19;103602.47;6103927;19;20266;-79
2023/02/11 03:31:15;;;;;;;17.08;6.55;;;;;;;5.04;93.27;103609.66;6107853;19;20010;-79
2023/02/11 03:33:29;;;;;;;22.88;7.10;;;;;;;5.01;92.87;103611.31;6107773;19;20375;-80
2023/02/11 03:35:45;;;;;;;18.50;7.57;;;;;;;5.12;92.74;103604.63;6106984;19;20337;-79
2023/02/11 03:37:56;;;;;;;22.17;8.13;;;;;;;5.09;92.95;103604.56;6100578;19;20011;-79
2023/02/11 03:40:09;;;;;;;29.55;8.65;;;;;;;5.06;93.20;103588.84;6109136;19;20030;-79
2023/02/11 03:42:17;;;;;;;25.75;8.00;;;;;;;5.11;93.03;103589.84;6111427;19;20013;-79
2023/02/11 03:44:24;;;;;;;36.47;7.68;;;;;;;5.08;92.90;103579.31;6110385;19;20010;-79
2023/02/11 03:46:35;;;;;;;21.30;8.43;;;;;;;5.07;93.25;103581.06;6110502;19;20010;-79
2023/02/11 03:48:42;;;;;;;26.02;9.70;;;;;;;5.00;92.91;103578.25;6110401;19;20014;-79
2023/02/11 03:50:54;;;;;;;25.17;7.65;;;;;;;5.08;93.23;103571.50;6111087;19;20018;-79
2023/02/11 03:53:09;;;;;;;19.35;6.70;;;;;;;5.10;93.11;103577.66;6104957;19;20538;-79
2023/02/11 03:55:18;;;;;;;28.05;8.18;;;;;;;5.07;93.06;103577.56;6107286;19;20425;-79
2023/02/11 03:57:23;;;;;;;30.67;8.20;;;;;;;5.04;93.03;103582.72;6107918;19;20497;-78
2023/02/11 03:59:28;;;;;;;21.42;8.10;;;;;;;4.98;93.17;103587.78;6106016;19;20011;-78
2023/02/11 04:01:35;;;;;;;20.52;8.07;;;;;;;4.95;93.37;103590.25;6105896;19;20329;-78
2023/02/11 04:03:40;;;;;;;25.50;9.45;;;;;;;4.92;93.77;103582.38;6104970;19;20021;-79
2023/02/11 04:05:45;;;;;;;26.75;8.02;;;;;;;4.93;93.34;103585.03;6104085;19;20023;-78
2023/02/11 04:07:53;;;;;;;24.17;9.35;;;;;;;4.95;93.87;103585.06;6102867;19;20490;-78
2023/02/11 04:09:59;;;;;;;25.38;9.10;;;;;;;4.90;93.75;103581.44;6106182;19;20057;-79
2023/02/11 04:12:04;;;;;;;24.42;8.70;;;;;;;4.87;93.57;103586.56;6106163;19;20130;-80
2023/02/11 04:14:10;;;;;;;26.77;8.38;;;;;;;4.82;94.07;103584.75;6107676;19;20381;-80
2023/02/11 04:16:15;;;;;;;27.15;8.85;;;;;;;4.95;94.21;103590.25;6104183;19;20018;-79
2023/02/11 04:18:20;;;;;;;22.83;8.90;;;;;;;4.88;93.89;103589.22;6106048;19;20113;-79
2023/02/11 04:20:25;;;;;;;27.15;9.52;;;;;;;4.90;94.18;103599.69;6106659;19;20020;-80
2023/02/11 04:22:32;;;;;;;29.17;9.70;;;;;;;4.85;93.97;103594.38;6103388;19;20011;-79
2023/02/11 04:24:42;;;;;;;22.08;9.27;;;;;;;4.84;94.34;103592.56;6106030;19;20048;-80
2023/02/11 04:26:48;;;;;;;25.73;8.73;;;;;;;4.80;94.10;103593.34;6104036;19;20059;-79
2023/02/11 04:28:53;;;;;;;29.52;9.73;;;;;;;4.76;94.30;103594.09;6106465;19;20313;-79
2023/02/11 04:31:00;;;;;;;27.00;9.55;;;;;;;4.69;93.90;103593.06;6104748;19;20339;-79
2023/02/11 04:33:05;;;;;;;29.73;10.07;;;;;;;4.66;94.83;103592.97;6105383;19;20011;-79
2023/02/11 04:35:10;;;;;;;23.23;9.00;;;;;;;4.63;94.54;103590.25;6101557;19;20017;-78
2023/02/11 04:37:15;;;;;;;26.08;9.20;;;;;;;4.62;94.90;103576.34;6100687;19;20023;-78
2023/02/11 04:39:21;;;;;;;22.02;9.10;;;;;;;4.62;94.70;103593.72;6104271;19;20067;-80
2023/02/11 04:41:29;;;;;;;23.35;9.07;;;;;;;4.63;94.94;103587.66;6104552;19;20022;-80
2023/02/11 04:43:36;;;;;;;23.88;9.50;;;;;;;4.67;95.13;103586.03;6103469;19;20007;-79
2023/02/11 04:45:41;;;;;;;22.75;8.98;;;;;;;4.66;94.79;103587.75;6105555;19;20030;-79
2023/02/11 04:47:49;;;;;;;29.00;9.88;;;;;;;4.66;95.39;103590.38;6099494;19;20012;-79
2023/02/11 04:49:55;;;;;;;27.05;10.52;;;;;;;4.66;95.32;103592.97;6105301;19;20022;-79
2023/02/11 04:52:03;;;;;;;28.20;10.95;;;;;;;4.70;95.50;103588.72;6103969;19;20021;-79
2023/02/11 04:54:10;;;;;;;25.58;10.00;;;;;;;4.65;95.28;103580.78;6103686;19;20047;-79
2023/02/11 04:56:16;;;;;;;24.23;9.73;;;;;;;4.67;95.42;103584.31;6105502;19;20506;-79
2023/02/11 04:58:23;;;;;;;35.53;12.43;;;;;;;4.65;95.72;103585.09;6100680;19;20014;-79
2023/02/11 05:00:28;;;;;;;33.72;11.40;;;;;;;4.67;95.37;103586.03;6103685;19;20676;-79
2023/02/11 05:02:35;;;;;;;28.10;10.40;;;;;;;4.61;95.43;103584.16;6102737;19;20498;-79
2023/02/11 05:04:40;;;;;;;30.77;11.00;;;;;;;4.67;95.75;103583.44;6102192;19;20057;-79
2023/02/11 05:06:45;;;;;;;33.60;12.90;;;;;;;4.68;95.86;103579.97;6104869;19;20459;-79
2023/02/11 05:08:51;;;;;;;35.10;11.57;;;;;;;4.64;95.92;103580.75;6102910;19;20024;-80
2023/02/11 05:10:56;;;;;;;31.38;13.90;;;;;;;4.59;95.52;103578.00;6101556;19;20018;-78
2023/02/11 05:13:01;;;;;;;36.50;13.02;;;;;;;4.70;95.94;103571.38;6103150;19;20579;-78
2023/02/11 05:15:13;;;;;;;36.42;13.35;;;;;;;4.64;95.62;103573.81;6103122;19;20014;-78
2023/02/11 05:17:18;;;;;;;32.08;12.55;;;;;;;4.67;95.90;103579.09;6102632;19;20007;-78
2023/02/11 05:19:23;;;;;;;38.80;14.60;;;;;;;4.71;96.05;103583.53;6101826;19;20036;-79
2023/02/11 05:21:31;;;;;;;33.70;13.10;;;;;;;4.64;95.84;103579.00;6102570;19;20021;-79
2023/02/11 05:23:40;;;;;;;34.70;13.73;;;;;;;4.64;96.09;103586.84;6102191;19;20020;-79
2023/02/11 05:25:45;;;;;;;31.88;13.10;;;;;;;4.62;95.93;103585.91;6102576;19;20722;-78
2023/02/11 05:27:51;;;;;;;31.58;13.70;;;;;;;4.60;96.09;103590.16;6099841;19;20014;-79
2023/02/11 05:29:56;;;;;;;40.28;12.70;;;;;;;4.61;96.11;103590.22;6101616;19;20846;-79
2023/02/11 05:32:03;;;;;;;34.22;14.13;;;;;;;4.61;95.89;103594.56;6102575;19;20072;-78
2023/02/11 05:34:09;;;;;;;34.15;13.85;;;;;;;4.57;96.32;103600.50;6102152;19;20374;-79
2023/02/11 05:36:15;;;;;;;35.33;13.90;;;;;;;4.55;96.18;103603.06;6100068;19;20024;-79
2023/02/11 05:38:20;;;;;;;33.78;14.05;;;;;;;4.55;96.26;103610.00;6098658;19;20015;-79
2023/02/11 05:40:25;;;;;;;33.30;12.80;;;;;;;4.56;96.50;103609.16;6081602;19;20606;-80
2023/02/11 05:42:30;;;;;;;37.72;14.65;;;;;;;4.51;96.53;103611.63;6098380;19;20006;-79
2023/02/11 05:44:35;;;;;;;41.50;13.57;;;;;;;4.53;96.49;103614.25;6094772;19;20027;-79
2023/02/11 05:46:40;;;;;;;30.05;13.25;;;;;;;4.51;96.42;103618.56;6096421;19;20039;-79
2023/02/11 05:48:48;;;;;;;38.40;14.93;;;;;;;4.57;96.64;103611.81;6097931;19;20043;-79
2023/02/11 05:50:54;;;;;;;37.10;15.38;;;;;;;4.58;96.64;103610.97;6099302;19;20235;-80
2023/02/11 05:52:59;;;;;;;37.28;14.32;;;;;;;4.61;97.03;103604.97;6077973;19;20019;-80
2023/02/11 05:55:04;;;;;;;35.90;15.63;;;;;;;4.56;96.60;103596.16;6077289;19;20006;-80
2023/02/11 05:57:09;;;;;;;34.67;14.75;;;;;;;4.61;96.50;103602.38;6078683;19;20010;-79
2023/02/11 05:59:15;;;;;;;37.60;17.98;;;;;;;4.68;96.76;103599.09;6098042;19;20539;-79
2023/02/11 06:01:21;;;;;;;43.08;17.58;;;;;;;4.70;97.00;103604.34;6102513;19;20007;-80
2023/02/11 06:03:26;;;;;;;42.63;16.52;;;;;;;4.64;96.99;103610.28;6078678;19;20018;-79
2023/02/11 06:05:37;;;;;;;44.08;17.25;;;;;;;4.66;96.99;103608.59;6099596;19;20101;-78
2023/02/11 06:07:42;;;;;;;46.78;16.17;;;;;;;4.64;96.81;103610.28;6098310;19;20496;-79
2023/02/11 06:09:48;;;;;;;40.15;17.02;;;;;;;4.65;96.84;103614.63;6090311;19;20377;-79
2023/02/11 06:11:55;;;;;;;39.80;16.27;;;;;;;4.53;96.69;103606.44;6096461;19;20010;-78
2023/02/11 06:14:04;;;;;;;38.85;15.32;;;;;;;4.51;96.70;103601.22;6099199;19;20447;-78
2023/02/11 06:16:09;;;;;;;38.58;15.13;;;;;;;4.52;96.67;103597.75;6078703;19;20102;-79
2023/02/11 06:18:17;;;;;;;36.92;15.38;;;;;;;4.48;96.70;103600.25;6101695;19;20015;-79
2023/02/11 06:20:22;;;;;;;35.60;15.40;;;;;;;4.42;96.81;103595.72;6080662;19;20090;-79
2023/02/11 06:22:30;;;;;;;38.58;15.82;;;;;;;4.36;96.97;103604.25;6100805;19;20493;-78
2023/02/11 06:24:35;;;;;;;35.75;15.30;;;;;;;4.37;96.96;103605.13;6106083;19;20007;-78
2023/02/11 06:27:01;;;;;;;42.63;15.88;;;;;;;4.35;97.00;103612.03;6106452;19;20044;-78
2023/02/11 06:29:06;;;;;;;34.58;15.45;;;;;;;4.33;97.02;103611.09;6084302;19;20007;-79
2023/02/11 06:31:11;;;;;;;35.55;16.17;;;;;;;4.33;97.50;103622.38;6110442;19;20345;-79
2023/02/11 06:33:18;;;;;;;34.88;16.02;;;;;;;4.34;97.46;103620.66;6109279;19;20391;-79
2023/02/11 06:35:26;;;;;;;39.65;17.42;;;;;;;4.26;97.45;103610.00;6085574;19;20633;-79
2023/02/11 06:37:36;;;;;;;47.00;18.15;;;;;;;4.27;97.58;103614.41;6108827;19;20481;-79
2023/02/11 06:39:41;;;;;;;38.08;14.88;;;;;;;4.28;97.68;103615.28;6108507;19;20015;-80
2023/02/11 06:41:50;;;;;;;36.35;15.90;;;;;;;4.21;97.13;103622.00;6107470;19;20099;-80
2023/02/11 06:43:57;;;;;;;45.20;17.05;;;;;;;4.23;97.69;103617.72;6104703;19;20104;-79
2023/02/11 06:46:02;;;;;;;42.72;17.85;;;;;;;4.21;97.27;103621.13;6102449;19;20018;-80
2023/02/11 06:48:13;;;;;;;37.78;17.02;;;;;;;4.19;97.24;103615.88;6082608;19;20060;-79
2023/02/11 06:50:19;;;;;;;44.03;17.45;;;;;;;4.21;97.73;103621.13;6085899;19;20039;-80
2023/02/11 06:52:25;;;;;;;36.88;17.02;;;;;;;4.18;97.58;103625.38;6100314;19;20036;-80
2023/02/11 06:54:32;;;;;;;48.97;17.58;;;;;;;4.16;97.39;103618.38;6086499;19;21154;-79
2023/02/11 06:56:42;;;;;;;42.33;16.50;;;;;;;4.11;97.46;103617.38;6105054;19;20092;-80
2023/02/11 06:58:49;;;;;;;40.13;15.63;;;;;;;4.12;97.83;103633.00;6101955;19;20039;-78
2023/02/11 07:00:55;;;;;;;38.72;16.27;;;;;;;4.10;97.86;103616.47;6106498;19;20018;-81
2023/02/11 07:03:02;;;;;;;41.80;17.40;;;;;;;4.24;98.18;103613.41;6107252;19;20010;-78
2023/02/11 07:05:09;;;;;;;44.65;17.77;;;;;;;4.23;98.00;103628.13;6107820;19;20048;-81
2023/02/11 07:07:18;;;;;;;38.47;15.57;;;;;;;4.15;97.93;103624.41;6082397;19;20084;-78
2023/02/11 07:09:23;;;;;;;44.72;17.58;;;;;;;4.23;97.88;103622.94;6087512;19;20047;-79
2023/02/11 07:11:32;;;;;;;43.60;18.17;;;;;;;4.14;97.83;103628.75;6104525;19;20093;-78
2023/02/11 07:13:39;;;;;;;33.75;16.80;;;;;;;4.10;97.83;103631.19;6105512;19;20010;-79
2023/02/11 07:15:44;;;;;;;40.75;15.88;;;;;;;4.09;98.10;103638.13;6080391;19;20018;-79
2023/02/11 07:17:52;;;;;;;40.08;17.00;;;;;;;4.14;98.22;103633.06;6036942;19;20018;-79
2023/02/11 07:19:57;;;;;;;48.88;18.88;;;;;;;4.14;98.29;103644.38;6102077;19;20010;-80
2023/02/11 07:22:04;;;;;;;38.83;17.20;;;;;;;4.12;98.34;103642.53;6105784;19;20018;-79
2023/02/11 07:24:10;;;;;;;43.92;18.60;;;;;;;4.11;98.34;103633.00;6101602;19;20010;-82
2023/02/11 07:26:21;;;;;;;36.33;16.15;;;;;;;4.00;98.25;103640.44;6104987;19;20402;-80
2023/02/11 07:28:29;;;;;;;39.58;16.60;;;;;;;4.03;98.32;103639.63;6102952;19;20052;-82
2023/02/11 07:30:38;;;;;;;31.05;15.80;;;;;;;3.97;98.04;103640.34;6078555;19;20011;-80
2023/02/11 07:32:43;;;;;;;35.78;15.52;;;;;;;3.97;97.97;103641.22;6104880;19;20281;-79
2023/02/11 07:34:48;;;;;;;42.42;16.35;;;;;;;3.99;98.10;103650.81;6098798;19;20031;-78
2023/02/11 07:36:53;;;;;;;36.25;15.73;;;;;;;3.91;97.98;103646.22;6104855;19;20009;-81
2023/02/11 07:38:59;;;;;;;41.90;17.42;;;;;;;4.01;98.38;103652.63;6079813;19;20019;-79
2023/02/11 07:41:05;;;;;;;39.35;17.80;;;;;;;4.11;98.28;103646.00;6100917;19;20073;-79
2023/02/11 07:43:10;;;;;;;43.50;18.67;;;;;;;4.13;98.39;103646.91;6098980;19;20026;-78
2023/02/11 07:45:19;;;;;;;38.10;17.50;;;;;;;4.12;98.54;103656.44;6100813;19;20014;-79
2023/02/11 07:47:24;;;;;;;42.13;18.80;;;;;;;4.17;98.58;103656.59;6105244;19;20538;-78
2023/02/11 07:49:29;;;;;;;37.67;16.05;;;;;;;4.21;98.43;103655.84;6102828;19;20029;-79
2023/02/11 07:51:36;;;;;;;37.13;18.52;;;;;;;4.25;98.27;103657.72;6063639;19;20014;-79
2023/02/11 07:53:43;;;;;;;34.75;17.23;;;;;;;4.32;98.45;103651.00;6100677;19;20789;-79
2023/02/11 07:55:51;;;;;;;44.60;19.48;;;;;;;4.34;98.31;103650.16;6093304;19;20044;-79
2023/02/11 07:57:56;;;;;;;45.85;21.05;;;;;;;4.43;98.57;103660.00;6061723;19;20018;-79
2023/02/11 08:00:03;;;;;;;44.65;19.25;;;;;;;4.56;98.73;103663.88;6101827;19;20396;-78
2023/02/11 08:02:14;;;;;;;46.63;19.85;;;;;;;4.66;98.23;103662.38;6100035;19;20054;-79
2023/02/11 08:04:19;;;;;;;43.50;18.48;;;;;;;4.67;98.34;103658.97;6106232;19;20554;-81
2023/02/11 08:06:29;;;;;;;44.55;19.55;;;;;;;4.76;98.07;103660.09;6084526;19;20035;-80
2023/02/11 08:08:36;;;;;;;57.22;21.48;;;;;;;4.85;98.13;103664.72;6102558;19;20007;-79
2023/02/11 08:10:43;;;;;;;51.15;19.35;;;;;;;4.88;98.27;103664.78;6081283;19;20006;-80
2023/02/11 08:12:52;;;;;;;49.00;19.88;;;;;;;4.93;98.03;103670.16;6103782;19;20069;-78
2023/02/11 08:14:59;;;;;;;49.92;19.90;;;;;;;5.01;97.98;103673.84;6106140;19;20031;-79
2023/02/11 08:17:05;;;;;;;51.47;20.60;;;;;;;5.08;98.02;103670.53;6080922;19;20106;-80
2023/02/11 08:19:16;;;;;;;46.55;20.60;;;;;;;5.10;97.70;103674.09;6103119;19;20384;-80
2023/02/11 08:21:23;;;;;;;51.47;22.08;;;;;;;5.13;97.84;103673.28;6102909;19;20475;-80
2023/02/11 08:23:29;;;;;;;53.65;22.05;;;;;;;5.17;97.69;103670.81;6082126;19;20035;-80
2023/02/11 08:25:35;;;;;;;52.28;21.38;;;;;;;5.21;97.63;103667.47;6097647;19;20125;-79
2023/02/11 08:27:41;;;;;;;47.65;19.90;;;;;;;5.20;97.37;103665.69;6103075;19;20011;-81
2023/02/11 08:29:48;;;;;;;50.97;21.25;;;;;;;5.30;97.58;103681.59;6095763;19;20356;-83
2023/02/11 08:31:54;;;;;;;47.22;22.13;;;;;;;5.31;97.65;103675.53;6096114;19;20042;-79
2023/02/11 08:34:02;;;;;;;55.22;21.70;;;;;;;5.38;97.65;103687.91;6095605;19;20025;-81
2023/02/11 08:36:14;;;;;;;53.72;21.98;;;;;;;5.42;97.54;103682.78;6093539;19;20020;-80
2023/02/11 08:38:20;;;;;;;53.33;23.20;;;;;;;5.48;97.57;103692.50;6072096;19;20014;-81
2023/02/11 08:40:27;;;;;;;52.35;22.02;;;;;;;5.47;97.35;103680.28;6092958;19;20007;-80
2023/02/11 08:42:37;;;;;;;47.30;20.02;;;;;;;5.53;97.27;103692.59;6098649;19;20014;-81
2023/02/11 08:44:51;;;;;;;47.28;20.25;;;;;;;5.59;97.31;103696.28;6074357;19;20006;-79
2023/02/11 08:46:58;;;;;;;52.47;22.48;;;;;;;5.67;97.59;103701.69;6075632;19;20072;-80
2023/02/11 08:49:06;;;;;;;52.28;21.33;;;;;;;5.72;97.32;103705.31;6096280;19;20018;-80
2023/02/11 08:51:26;;;;;;;46.08;20.83;;;;;;;5.73;97.36;103705.31;6098772;19;20403;-81
2023/02/11 08:53:35;;;;;;;53.47;23.73;;;;;;;5.79;97.26;103714.16;6094940;19;20052;-82
2023/02/11 08:55:41;;;;;;;50.40;19.90;;;;;;;5.81;97.24;103702.91;6094836;19;20016;-79
2023/02/11 08:57:47;;;;;;;51.67;21.98;;;;;;;5.89;97.25;103708.34;6096418;19;20011;-80
2023/02/11 08:59:55;;;;;;;48.58;22.02;;;;;;;5.93;97.20;103708.50;6075414;19;20039;-82
2023/02/11 09:02:03;;;;;;;48.22;19.30;;;;;;;6.02;97.12;103705.22;6093887;19;20013;-82
2023/02/11 09:04:09;;;;;;;51.22;20.95;;;;;;;6.09;96.91;103714.09;6075999;19;20478;-82
2023/02/11 09:06:18;;;;;;;45.22;19.90;;;;;;;6.10;97.16;103706.28;6099095;19;20428;-83
2023/02/11 09:08:24;;;;;;;42.25;20.00;;;;;;;6.18;96.68;103710.81;6075543;19;20006;-81
2023/02/11 09:10:29;;;;;;;45.35;20.10;;;;;;;6.25;96.67;103711.00;6092064;19;20129;-78
2023/02/11 09:12:35;;;;;;;41.20;17.77;;;;;;;6.31;96.94;103707.66;6078668;19;20019;-80
2023/02/11 09:14:40;;;;;;;44.20;19.55;;;;;;;6.36;96.80;103711.25;6095347;19;20015;-77
2023/02/11 09:16:46;;;;;;;43.38;19.45;;;;;;;6.43;96.38;103705.31;6095173;19;20504;-79
2023/02/11 09:18:52;;;;;;;43.13;18.15;;;;;;;6.50;96.60;103712.47;6073255;19;20002;-76
2023/02/11 09:21:04;;;;;;;43.80;18.83;;;;;;;6.55;96.72;103705.56;6096717;19;20516;-79
2023/02/11 09:23:15;;;;;;;44.70;18.38;;;;;;;6.68;96.17;103721.53;6102139;19;20003;-78
2023/02/11 09:25:25;;;;;;;41.83;18.48;;;;;;;6.76;96.22;103713.00;6102839;19;20681;-80
2023/02/11 09:27:31;;;;;;;44.60;19.63;;;;;;;6.76;95.96;103706.91;6105113;19;20014;-81
2023/02/11 09:29:40;;;;;;;39.88;18.63;;;;;;;6.77;95.95;103709.56;6098754;19;20011;-79
2023/02/11 09:31:49;;;;;;;35.92;16.15;;;;;;;6.87;95.87;103713.22;6103751;19;20067;-80
2023/02/11 09:33:59;;;;;;;38.80;15.80;;;;;;;6.87;95.94;103718.47;6097109;19;20058;-81
2023/02/11 09:36:05;;;;;;;38.78;16.60;;;;;;;6.94;95.62;103724.72;6097991;19;20067;-79
2023/02/11 09:38:13;;;;;;;39.88;16.13;;;;;;;6.94;95.52;103714.25;6103640;19;20026;-78
2023/02/11 09:40:21;;;;;;;35.95;16.10;;;;;;;6.99;95.62;103717.84;6082981;19;20014;-80
2023/02/11 09:42:42;;;;;;;36.28;15.77;;;;;;;7.05;95.68;103723.19;6102610;19;20088;-79
2023/02/11 09:44:51;;;;;;;29.40;14.50;;;;;;;7.14;95.54;103731.25;6080683;19;20036;-79
2023/02/11 09:47:00;;;;;;;31.70;14.35;;;;;;;7.15;94.57;103721.66;6104899;19;20095;-80
2023/02/11 09:49:07;;;;;;;31.08;13.55;;;;;;;7.18;94.86;103727.81;6108464;19;20006;-80
2023/02/11 09:51:22;;;;;;;30.38;13.82;;;;;;;7.30;93.37;103721.97;6084599;19;20014;-78
2023/02/11 09:53:40;;;;;;;29.17;13.50;;;;;;;7.37;94.28;103726.47;6077862;19;20014;-79
2023/02/11 09:55:54;;;;;;;28.50;13.23;;;;;;;7.45;94.03;103718.75;6108248;19;20006;-79
2023/02/11 09:58:06;;;;;;;31.40;14.27;;;;;;;7.53;93.30;103724.13;6083460;19;20019;-80
2023/02/11 10:00:21;;;;;;;32.92;14.10;;;;;;;7.64;92.44;103715.63;6085508;19;20027;-80